createdAt,value
2018-07-27T00:02:02.334Z,5.50
2018-07-27T00:04:32.099Z,3.90
2018-07-27T00:07:01.912Z,3.90
2018-07-27T00:09:31.682Z,4.60
2018-07-27T00:12:01.448Z,3.58
2018-07-27T00:14:31.189Z,5.45
2018-07-27T00:17:01.012Z,7.70
2018-07-27T00:19:30.783Z,5.40
2018-07-27T00:22:00.686Z,5.03
2018-07-27T00:24:30.445Z,5.03
2018-07-27T00:27:00.248Z,3.87
2018-07-27T00:29:30.091Z,4.20
2018-07-27T00:31:59.877Z,4.60
2018-07-27T00:34:29.710Z,6.37
2018-07-27T00:36:59.433Z,4.00
2018-07-27T00:39:29.194Z,5.80
2018-07-27T00:41:59.381Z,6.20
2018-07-27T00:44:29.771Z,5.70
2018-07-27T00:46:59.537Z,5.63
2018-07-27T00:49:29.225Z,6.03
2018-07-27T00:51:58.956Z,5.43
2018-07-27T00:54:28.754Z,7.03
2018-07-27T00:56:58.533Z,4.70
2018-07-27T00:59:28.265Z,6.80
2018-07-27T01:01:58.039Z,5.87
2018-07-27T01:04:27.860Z,4.67
2018-07-27T01:06:57.690Z,5.17
2018-07-27T01:09:27.434Z,5.87
2018-07-27T01:11:57.198Z,6.15
2018-07-27T01:14:26.972Z,6.00
2018-07-27T01:16:56.769Z,4.85
2018-07-27T01:19:26.527Z,8.17
2018-07-27T01:21:56.370Z,4.35
2018-07-27T01:24:26.088Z,5.63
2018-07-27T01:26:55.800Z,4.42
2018-07-27T01:29:25.549Z,4.83
2018-07-27T01:31:55.282Z,4.65
2018-07-27T01:34:24.994Z,6.03
2018-07-27T01:36:54.788Z,4.75
2018-07-27T01:39:24.597Z,5.33
2018-07-27T01:41:54.348Z,5.92
2018-07-27T01:44:24.079Z,5.13
2018-07-27T01:46:53.794Z,6.25
2018-07-27T01:49:23.672Z,4.80
2018-07-27T01:51:53.390Z,6.20
2018-07-27T01:54:23.140Z,6.57
2018-07-27T01:56:52.852Z,5.00
2018-07-27T01:59:22.811Z,5.50
2018-07-27T02:01:53.242Z,6.57
2018-07-27T02:04:24.143Z,7.20
2018-07-27T02:06:54.775Z,6.37
2018-07-27T02:09:25.680Z,6.57
2018-07-27T02:11:56.095Z,6.97
2018-07-27T02:14:26.978Z,7.60
2018-07-27T02:16:57.374Z,7.90
2018-07-27T02:19:27.949Z,21.62
2018-07-27T02:21:58.597Z,12.85
2018-07-27T02:24:29.318Z,10.15
2018-07-27T02:26:59.828Z,11.38
2018-07-27T02:29:30.447Z,13.13
2018-07-27T02:32:01.195Z,12.83
2018-07-27T02:34:31.914Z,8.85
2018-07-27T02:37:02.637Z,12.55
2018-07-27T02:39:33.603Z,8.40
2018-07-27T02:42:04.165Z,8.70
2018-07-27T02:44:34.917Z,10.05
2018-07-27T02:47:05.815Z,9.45
2018-07-27T02:49:36.453Z,9.35
2018-07-27T02:52:07.024Z,8.63
2018-07-27T02:54:37.608Z,8.90
2018-07-27T02:57:07.323Z,15.87
2018-07-27T02:59:37.126Z,14.73
2018-07-27T03:02:06.880Z,19.77
2018-07-27T03:04:36.664Z,14.17
2018-07-27T03:07:06.480Z,15.80
2018-07-27T03:09:36.217Z,14.95
2018-07-27T03:12:05.988Z,13.90
2018-07-27T03:14:35.694Z,18.57
2018-07-27T03:17:05.799Z,21.90
2018-07-27T03:19:35.548Z,14.17
2018-07-27T03:22:05.268Z,14.57
2018-07-27T03:24:34.983Z,12.93
2018-07-27T03:27:04.720Z,12.23
2018-07-27T03:29:34.413Z,13.67
2018-07-27T03:32:04.140Z,16.90
2018-07-27T03:34:33.885Z,14.83
2018-07-27T03:37:03.613Z,12.25
2018-07-27T03:39:33.318Z,16.12
2018-07-27T03:42:03.009Z,12.50
2018-07-27T03:44:32.744Z,9.25
2018-07-27T03:47:02.505Z,9.10
2018-07-27T03:49:32.671Z,8.90
2018-07-27T03:52:02.389Z,8.90
2018-07-27T03:54:32.100Z,13.60
2018-07-27T03:57:01.827Z,9.10
2018-07-27T03:59:31.666Z,9.10
2018-07-27T04:02:01.444Z,8.90
2018-07-27T04:04:31.281Z,12.93
2018-07-27T04:07:01.034Z,9.37
2018-07-27T04:09:30.741Z,10.47
2018-07-27T04:12:00.459Z,9.77
2018-07-27T04:14:30.180Z,11.80
2018-07-27T04:17:00.011Z,12.90
2018-07-27T04:19:29.929Z,11.20
2018-07-27T04:22:00.813Z,10.70
2018-07-27T04:24:31.305Z,17.60
2018-07-27T04:27:02.130Z,9.00
2018-07-27T04:32:42.078Z,9.33
2018-07-27T04:35:12.069Z,10.13
2018-07-27T04:37:42.116Z,10.70
2018-07-27T04:40:12.676Z,9.00
2018-07-27T04:42:42.674Z,8.55
2018-07-27T04:45:12.851Z,11.67
2018-07-27T04:47:42.871Z,8.73
2018-07-27T04:50:13.235Z,9.60
2018-07-27T04:52:43.758Z,9.77
2018-07-27T04:55:14.462Z,13.15
2018-07-27T04:57:44.898Z,8.10
2018-07-27T05:00:15.602Z,8.33
2018-07-27T05:02:46.138Z,9.05
2018-07-27T05:05:16.760Z,8.23
2018-07-27T05:07:47.400Z,8.28
2018-07-27T05:10:23.743Z,8.48
2018-07-27T05:12:53.514Z,14.33
2018-07-27T05:15:23.289Z,15.80
2018-07-27T05:17:53.049Z,10.80
2018-07-27T05:20:22.830Z,14.60
2018-07-27T05:22:52.632Z,8.70
2018-07-27T05:25:22.385Z,13.63
2018-07-27T05:27:52.158Z,9.77
2018-07-27T05:30:21.919Z,13.23
2018-07-27T05:32:51.738Z,16.57
2018-07-27T05:35:21.519Z,14.57
2018-07-27T05:37:51.652Z,15.47
2018-07-27T05:40:21.380Z,12.23
2018-07-27T05:42:51.202Z,13.90
2018-07-27T05:45:20.993Z,13.87
2018-07-27T05:47:50.768Z,22.70
2018-07-27T05:50:20.567Z,16.50
2018-07-27T05:52:50.367Z,12.47
2018-07-27T05:55:20.136Z,16.20
2018-07-27T05:57:49.962Z,14.00
2018-07-27T06:00:19.763Z,21.30
2018-07-27T06:02:49.566Z,16.03
2018-07-27T06:05:19.368Z,12.95
2018-07-27T06:07:49.124Z,14.67
2018-07-27T06:10:18.864Z,15.43
2018-07-27T06:12:48.657Z,18.45
2018-07-27T06:15:18.452Z,14.17
2018-07-27T06:17:48.261Z,14.05
2018-07-27T06:20:18.068Z,15.05
2018-07-27T06:22:47.808Z,13.72
2018-07-27T06:25:17.577Z,16.60
2018-07-27T06:27:47.431Z,14.53
2018-07-27T06:30:17.245Z,15.93
2018-07-27T06:32:46.988Z,14.53
2018-07-27T06:35:16.853Z,18.60
2018-07-27T06:37:46.597Z,14.80
2018-07-27T06:40:16.370Z,17.67
2018-07-27T06:42:46.126Z,13.40
2018-07-27T06:45:15.922Z,16.67
2018-07-27T06:47:45.694Z,14.47
2018-07-27T06:50:15.479Z,15.23
2018-07-27T06:52:45.444Z,13.83
2018-07-27T06:55:16.045Z,10.95
2018-07-27T06:57:46.729Z,18.67
2018-07-27T07:00:17.115Z,16.80
2018-07-27T07:02:47.786Z,18.05
2018-07-27T07:05:18.414Z,11.22
2018-07-27T07:07:49.294Z,13.43
2018-07-27T07:10:19.837Z,15.20
2018-07-27T07:12:50.685Z,9.75
2018-07-27T07:15:21.115Z,14.95
2018-07-27T07:17:52.021Z,17.03
2018-07-27T07:20:22.398Z,17.40
2018-07-27T07:22:53.253Z,13.08
2018-07-27T07:25:23.520Z,10.87
2018-07-27T07:27:54.230Z,10.25
2018-07-27T07:30:24.567Z,12.73
2018-07-27T07:32:55.387Z,13.00
2018-07-27T07:35:25.945Z,12.83
2018-07-27T07:37:56.804Z,18.07
2018-07-27T07:40:27.355Z,14.33
2018-07-27T07:42:58.289Z,8.30
2018-07-27T07:45:29.151Z,14.17
2018-07-27T07:47:59.652Z,13.47
2018-07-27T07:50:29.986Z,11.20
2018-07-27T07:52:59.836Z,13.23
2018-07-27T07:55:29.586Z,9.77
2018-07-27T07:57:59.376Z,9.87
2018-07-27T08:00:29.191Z,12.10
2018-07-27T08:02:59.411Z,12.60
2018-07-27T08:05:30.092Z,12.70
2018-07-27T08:07:59.827Z,16.60
2018-07-27T08:10:29.636Z,13.57
2018-07-27T08:12:59.460Z,12.97
2018-07-27T08:15:29.308Z,17.30
2018-07-27T08:17:59.087Z,9.20
2018-07-27T08:20:28.821Z,14.27
2018-07-27T08:22:58.608Z,17.17
2018-07-27T08:25:45.400Z,13.90
2018-07-27T08:28:31.602Z,13.10
2018-07-27T08:31:04.220Z,10.90
2018-07-27T08:33:34.011Z,12.27
2018-07-27T08:36:03.716Z,12.40
2018-07-27T08:38:33.471Z,14.90
2018-07-27T08:41:03.322Z,10.17
2018-07-27T08:43:33.131Z,8.17
2018-07-27T08:46:03.027Z,18.27
2018-07-27T08:48:32.901Z,8.10
2018-07-27T08:51:02.682Z,9.05
2018-07-27T08:53:32.451Z,7.40
2018-07-27T08:56:02.255Z,9.97
2018-07-27T08:58:32.087Z,8.40
2018-07-27T09:01:01.867Z,9.93
2018-07-27T09:03:31.716Z,9.27
2018-07-27T09:06:01.627Z,13.25
2018-07-27T09:08:31.453Z,9.57
2018-07-27T09:11:01.225Z,7.33
2018-07-27T09:13:31.160Z,8.93
2018-07-27T09:16:00.996Z,7.87
2018-07-27T09:18:30.742Z,8.73
2018-07-27T09:21:00.616Z,8.05
2018-07-27T09:23:30.477Z,6.30
2018-07-27T09:26:00.381Z,5.13
2018-07-27T09:28:30.216Z,5.60
2018-07-27T09:31:00.051Z,8.45
2018-07-27T09:33:29.870Z,7.90
2018-07-27T09:35:59.740Z,8.87
2018-07-27T09:38:29.527Z,10.37
2018-07-27T09:40:59.420Z,8.10
2018-07-27T09:43:30.596Z,8.23
2018-07-27T09:46:01.021Z,5.43
2018-07-27T09:48:30.858Z,11.40
2018-07-27T09:51:02.021Z,8.03
2018-07-27T09:53:32.290Z,9.25
2018-07-27T09:56:02.867Z,5.30
2018-07-27T09:58:33.531Z,9.75
2018-07-27T10:01:12.660Z,9.03
2018-07-27T10:03:42.505Z,5.07
2018-07-27T10:06:12.346Z,9.10
2018-07-27T10:08:42.605Z,6.87
2018-07-27T10:11:12.786Z,10.23
2018-07-27T10:13:42.757Z,10.97
2018-07-27T10:16:13.486Z,6.77
2018-07-27T10:18:43.332Z,6.87
2018-07-27T10:21:13.240Z,6.67
2018-07-27T10:23:43.151Z,6.27
2018-07-27T10:26:12.980Z,5.27
2018-07-27T10:28:42.755Z,6.97
2018-07-27T10:31:12.599Z,4.90
2018-07-27T10:33:42.476Z,4.57
2018-07-27T10:36:12.297Z,6.03
2018-07-27T10:38:42.661Z,4.60
2018-07-27T10:41:13.277Z,6.78
2018-07-27T10:43:43.979Z,8.90
2018-07-27T10:46:14.540Z,10.33
2018-07-27T10:48:45.016Z,9.38
2018-07-27T10:51:15.582Z,4.53
2018-07-27T10:53:46.457Z,7.60
2018-07-27T10:56:16.770Z,10.63
2018-07-27T10:58:47.754Z,6.67
2018-07-27T11:01:18.042Z,8.67
2018-07-27T11:03:48.736Z,5.15
2018-07-27T11:06:19.302Z,4.87
2018-07-27T11:08:50.407Z,5.80
2018-07-27T11:11:20.768Z,7.33
2018-07-27T11:13:51.404Z,5.20
2018-07-27T11:16:22.147Z,6.97
2018-07-27T11:18:52.786Z,18.82
2018-07-27T11:21:23.693Z,6.42
2018-07-27T11:23:54.109Z,4.58
2018-07-27T11:26:24.747Z,5.22
2018-07-27T11:28:55.221Z,4.62
2018-07-27T11:31:25.902Z,6.50
2018-07-27T11:33:56.842Z,7.86
2018-07-27T11:36:27.334Z,3.64
2018-07-27T11:38:58.061Z,3.94
2018-07-27T11:41:28.477Z,3.25
2018-07-27T11:43:59.442Z,7.53
2018-07-27T11:46:29.896Z,6.45
2018-07-27T11:49:00.366Z,4.16
2018-07-27T11:51:30.980Z,6.33
2018-07-27T11:54:01.745Z,5.94
2018-07-27T11:56:32.435Z,3.50
2018-07-27T11:59:03.230Z,4.40
2018-07-27T12:01:33.699Z,9.58
2018-07-27T12:04:04.577Z,5.60
2018-07-27T12:06:34.960Z,5.53
2018-07-27T12:09:08.660Z,3.50
2018-07-27T12:11:38.582Z,5.25
2018-07-27T12:14:08.596Z,4.53
2018-07-27T12:16:38.475Z,3.40
2018-07-27T12:19:08.285Z,9.83
2018-07-27T12:21:38.570Z,4.87
2018-07-27T12:24:08.151Z,4.47
2018-07-27T12:26:38.051Z,6.67
2018-07-27T12:29:08.173Z,4.12
2018-07-27T12:31:38.097Z,7.72
2018-07-27T12:34:08.007Z,4.12
2018-07-27T12:36:37.970Z,3.50
2018-07-27T12:39:11.226Z,4.30
2018-07-27T12:41:42.175Z,6.37
2018-07-27T12:44:12.301Z,7.05
2018-07-27T12:46:42.167Z,6.47
2018-07-27T12:49:11.960Z,5.90
2018-07-27T12:51:41.930Z,3.85
2018-07-27T12:54:11.805Z,5.60
2018-07-27T12:56:41.637Z,3.83
2018-07-27T12:59:11.508Z,5.95
2018-07-27T13:01:41.406Z,8.40
2018-07-27T13:04:11.231Z,5.37
2018-07-27T13:06:41.322Z,5.03
2018-07-27T13:09:12.418Z,3.00
2018-07-27T13:11:42.217Z,7.60
2018-07-27T13:14:12.116Z,5.65
2018-07-27T13:16:42.064Z,8.77
2018-07-27T13:19:14.872Z,4.67
2018-07-27T13:21:44.916Z,7.13
2018-07-27T13:24:15.435Z,3.22
2018-07-27T13:26:45.297Z,4.80
2018-07-27T13:29:15.176Z,9.05
2018-07-27T13:31:50.107Z,3.30
2018-07-27T13:37:19.575Z,8.77
2018-07-27T13:39:50.374Z,6.08
2018-07-27T13:42:22.705Z,3.02
2018-07-27T13:44:52.608Z,8.68
2018-07-27T13:47:22.686Z,6.37
2018-07-27T13:49:53.245Z,4.85
2018-07-27T13:52:24.143Z,3.58
2018-07-27T13:54:54.022Z,3.70
2018-07-27T13:57:23.869Z,5.85
2018-07-27T13:59:53.727Z,4.65
2018-07-27T14:02:23.600Z,6.00
2018-07-27T14:04:53.367Z,8.05
2018-07-27T14:07:23.241Z,8.83
2018-07-27T14:09:53.226Z,5.05
2018-07-27T14:12:23.267Z,2.98
2018-07-27T14:14:53.009Z,4.35
2018-07-27T14:17:22.811Z,5.55
2018-07-27T14:19:52.663Z,3.40
2018-07-27T14:22:22.428Z,4.50
2018-07-27T14:24:52.482Z,4.72
2018-07-27T14:27:22.253Z,5.35
2018-07-27T14:29:52.045Z,4.33
2018-07-27T14:32:21.912Z,6.10
2018-07-27T14:34:51.768Z,4.70
2018-07-27T14:37:21.628Z,3.87
2018-07-27T14:39:51.471Z,4.22
2018-07-27T14:42:21.375Z,8.73
2018-07-27T14:44:51.212Z,5.35
2018-07-27T14:47:21.025Z,7.00
2018-07-27T14:49:50.940Z,7.25
2018-07-27T14:52:20.867Z,3.40
2018-07-27T14:54:50.731Z,3.52
2018-07-27T14:57:20.496Z,4.00
2018-07-27T14:59:50.317Z,4.95
2018-07-27T15:02:20.187Z,3.58
2018-07-27T15:04:50.049Z,8.75
2018-07-27T15:07:19.777Z,3.30
2018-07-27T15:09:49.531Z,4.80
2018-07-27T15:12:19.243Z,3.67
2018-07-27T15:14:49.146Z,3.80
2018-07-27T15:17:19.093Z,3.33
2018-07-27T15:19:48.987Z,3.45
2018-07-27T15:22:18.788Z,5.72
2018-07-27T15:24:48.721Z,3.90
2018-07-27T15:27:18.482Z,3.55
2018-07-27T15:29:48.181Z,5.95
2018-07-27T15:32:18.032Z,4.05
2018-07-27T15:34:47.861Z,4.75
2018-07-27T15:37:17.621Z,4.10
2018-07-27T15:39:47.521Z,11.97
2018-07-27T15:42:17.462Z,9.27
2018-07-27T15:44:47.460Z,6.50
2018-07-27T15:47:17.296Z,4.94
2018-07-27T15:49:47.206Z,4.97
2018-07-27T15:52:17.048Z,6.33
2018-07-27T15:54:46.832Z,4.85
2018-07-27T15:57:16.738Z,4.97
2018-07-27T15:59:46.551Z,3.60
2018-07-27T16:02:16.613Z,7.20
2018-07-27T16:04:47.403Z,3.88
2018-07-27T16:07:17.963Z,4.08
2018-07-27T16:09:48.743Z,5.52
2018-07-27T16:12:19.424Z,7.95
2018-07-27T16:14:50.267Z,6.52
2018-07-27T16:17:20.746Z,6.85
2018-07-27T16:19:51.751Z,7.80
2018-07-27T16:22:22.127Z,5.60
2018-07-27T16:24:52.971Z,9.68
2018-07-27T16:27:23.575Z,5.95
2018-07-27T16:29:54.232Z,7.06
2018-07-27T16:32:24.858Z,6.28
2018-07-27T16:34:55.451Z,6.44
2018-07-27T16:37:26.007Z,5.78
2018-07-27T16:39:56.859Z,4.76
2018-07-27T16:42:27.422Z,6.83
2018-07-27T16:44:57.993Z,4.98
2018-07-27T16:47:28.621Z,11.57
2018-07-27T16:49:59.350Z,10.00
2018-07-27T16:52:29.731Z,8.48
2018-07-27T16:55:00.444Z,5.90
2018-07-27T16:57:30.991Z,6.40
2018-07-27T17:00:01.584Z,5.10
2018-07-27T17:02:31.523Z,4.85
2018-07-27T17:05:01.490Z,5.15
2018-07-27T17:07:31.338Z,4.37
2018-07-27T17:10:01.204Z,7.35
2018-07-27T17:12:31.009Z,9.60
2018-07-27T17:15:00.811Z,6.20
2018-07-27T17:17:30.933Z,6.45
2018-07-27T17:20:00.905Z,8.98
2018-07-27T17:22:30.946Z,6.47
2018-07-27T17:25:00.794Z,4.53
2018-07-27T17:27:30.671Z,6.58
2018-07-27T17:30:00.449Z,8.18
2018-07-27T17:32:30.303Z,15.27
2018-07-27T17:35:00.138Z,7.33
2018-07-27T17:37:31.028Z,8.00
2018-07-27T17:40:01.205Z,8.00
2018-07-27T17:42:31.088Z,4.93
2018-07-27T17:45:01.084Z,5.25
2018-07-27T17:47:31.008Z,7.63
2018-07-27T17:50:01.031Z,5.10
2018-07-27T17:52:30.886Z,6.20
2018-07-27T17:55:00.782Z,4.35
2018-07-27T17:57:30.632Z,4.90
2018-07-27T18:00:00.488Z,5.78
2018-07-27T18:02:30.360Z,5.07
2018-07-27T18:05:00.228Z,5.80
2018-07-27T18:07:30.233Z,5.12
2018-07-27T18:09:59.942Z,7.62
2018-07-27T18:12:29.843Z,5.17
2018-07-27T18:14:59.725Z,5.65
2018-07-27T18:17:29.569Z,5.90
2018-07-27T18:19:59.588Z,5.60
2018-07-27T18:22:29.485Z,14.30
2018-07-27T18:24:59.472Z,7.83
2018-07-27T18:27:29.325Z,8.80
2018-07-27T18:29:59.285Z,5.60
2018-07-27T18:32:29.290Z,8.50
2018-07-27T18:34:59.237Z,6.35
2018-07-27T18:37:29.078Z,7.33
2018-07-27T18:39:59.108Z,8.78
2018-07-27T18:42:29.057Z,5.22
2018-07-27T18:44:59.010Z,5.70
2018-07-27T18:47:29.693Z,6.72
2018-07-27T18:50:00.258Z,5.62
2018-07-27T18:52:31.171Z,6.30
2018-07-27T18:55:01.745Z,6.60
2018-07-27T18:57:32.304Z,8.60
2018-07-27T19:00:03.089Z,7.58
2018-07-27T19:02:33.857Z,8.40
2018-07-27T19:05:04.632Z,8.08
2018-07-27T19:07:35.142Z,6.10
2018-07-27T19:10:06.081Z,5.87
2018-07-27T19:12:36.204Z,9.24
2018-07-27T19:15:08.451Z,6.60
2018-07-27T19:17:38.595Z,9.45
2018-07-27T19:20:08.745Z,7.03
2018-07-27T19:22:38.795Z,7.40
2018-07-27T19:25:09.176Z,8.83
2018-07-27T19:27:39.114Z,6.50
2018-07-27T19:30:11.379Z,7.28
2018-07-27T19:32:41.472Z,8.33
2018-07-27T19:35:12.100Z,5.37
2018-07-27T19:37:42.664Z,15.98
2018-07-27T19:40:13.227Z,13.20
2018-07-27T19:42:43.924Z,10.46
2018-07-27T19:45:14.347Z,9.18
2018-07-27T19:47:44.958Z,9.24
2018-07-27T19:50:15.377Z,14.23
2018-07-27T19:52:46.232Z,10.88
2018-07-27T19:55:16.860Z,9.45
2018-07-27T19:57:47.610Z,8.48
2018-07-27T20:00:18.103Z,8.38
2018-07-27T20:02:48.333Z,8.15
2018-07-27T20:05:18.295Z,8.95
2018-07-27T20:07:48.628Z,7.10
2018-07-27T20:10:18.591Z,6.10
2018-07-27T20:12:48.532Z,6.47
2018-07-27T20:15:18.440Z,7.40
2018-07-27T20:17:48.484Z,6.35
2018-07-27T20:20:18.478Z,7.10
2018-07-27T20:22:48.343Z,8.50
2018-07-27T20:25:18.136Z,5.40
2018-07-27T20:27:48.149Z,7.47
2018-07-27T20:30:17.972Z,5.62
2018-07-27T20:32:47.995Z,13.17
2018-07-27T20:35:17.912Z,9.35
2018-07-27T20:37:47.831Z,5.35
2018-07-27T20:40:17.804Z,5.60
2018-07-27T20:42:47.738Z,7.03
2018-07-27T20:45:17.758Z,19.05
2018-07-27T20:47:47.740Z,14.68
2018-07-27T20:50:17.588Z,11.70
2018-07-27T20:52:47.623Z,7.65
2018-07-27T20:55:17.732Z,9.03
2018-07-27T20:57:47.679Z,8.60
2018-07-27T21:00:17.624Z,6.77
2018-07-27T21:02:47.498Z,10.20
2018-07-27T21:05:17.384Z,8.38
2018-07-27T21:07:47.262Z,12.20
2018-07-27T21:10:17.333Z,8.70
2018-07-27T21:12:47.192Z,10.08
2018-07-27T21:15:17.125Z,10.93
2018-07-27T21:17:47.076Z,7.28
2018-07-27T21:20:17.257Z,7.20
2018-07-27T21:22:47.153Z,8.18
2018-07-27T21:25:17.140Z,10.00
2018-07-27T21:27:46.985Z,10.32
2018-07-27T21:30:16.828Z,12.33
2018-07-27T21:32:46.827Z,12.95
2018-07-27T21:35:16.749Z,9.37
2018-07-27T21:37:46.767Z,12.50
2018-07-27T21:40:16.890Z,8.33
2018-07-27T21:42:46.737Z,11.57
2018-07-27T21:45:16.589Z,8.77
2018-07-27T21:47:46.413Z,10.03
2018-07-27T21:50:16.692Z,11.63
2018-07-27T21:52:47.010Z,10.07
2018-07-27T21:55:18.068Z,8.97
2018-07-27T21:57:48.510Z,9.90
2018-07-27T22:00:19.663Z,8.30
2018-07-27T22:02:49.952Z,17.73
2018-07-27T22:05:20.713Z,10.65
2018-07-27T22:07:54.525Z,9.20
2018-07-27T22:10:24.872Z,7.87
2018-07-27T22:12:55.162Z,7.33
2018-07-27T22:15:26.058Z,11.33
2018-07-27T22:17:55.961Z,10.33
2018-07-27T22:20:25.851Z,7.70
2018-07-27T22:22:55.738Z,9.17
2018-07-27T22:25:26.322Z,7.83
2018-07-27T22:27:56.917Z,7.27
2018-07-27T22:30:27.694Z,6.95
2018-07-27T22:32:58.217Z,8.33
2018-07-27T22:35:28.762Z,6.60
2018-07-27T22:37:59.373Z,10.97
2018-07-27T22:40:30.382Z,7.40
2018-07-27T22:43:00.863Z,7.97
2018-07-27T22:45:31.683Z,7.78
2018-07-27T22:48:02.316Z,7.07
2018-07-27T22:50:33.049Z,9.53
2018-07-27T22:53:03.679Z,13.17
2018-07-27T22:55:34.369Z,9.18
2018-07-27T22:58:04.810Z,7.17
2018-07-27T23:00:35.628Z,7.03
2018-07-27T23:03:06.439Z,6.73
2018-07-27T23:05:36.910Z,8.48
2018-07-27T23:08:07.688Z,8.90
2018-07-27T23:10:38.473Z,9.98
2018-07-27T23:13:08.908Z,8.33
2018-07-27T23:15:39.838Z,7.90
2018-07-27T23:18:10.432Z,9.10
2018-07-27T23:20:41.337Z,8.53
2018-07-27T23:23:11.903Z,6.33
2018-07-27T23:25:42.769Z,8.18
2018-07-27T23:28:13.196Z,6.53
2018-07-27T23:30:44.044Z,9.60
2018-07-27T23:33:14.522Z,10.87
2018-07-27T23:35:45.304Z,7.22
2018-07-27T23:38:15.790Z,9.33
2018-07-27T23:40:46.330Z,8.30
2018-07-27T23:43:16.790Z,6.90
2018-07-27T23:45:47.559Z,9.00
2018-07-27T23:48:18.221Z,10.57
2018-07-27T23:50:48.957Z,7.12
2018-07-27T23:53:19.675Z,8.43
2018-07-27T23:55:50.192Z,6.30
2018-07-27T23:58:20.873Z,5.90
